Hovedside
METAR-TAF:

METAR-TAF

Lufthavner :

Kuwait, Kuwait

breddegrad: 29-13N, lengdegrad: 047-59E, høyde over havet: 55 m

Gjeldene værobservasjon

Denne rapporten ble laget for 47 minutter siden, klokken 11:00 UTC
Vind 16 kt fra Nord
Temperatur 46°C
Luftfuktighet 10%
Trykk 994 hPa
Sikt 10 km eller mer
ingen skyer under 1500 m og ingen bygeskyer

METAR: OKBK 041100Z 35016KT CAVOK 46/07 Q0994 NOSIG

Tid: 14:47 (11:47 UTC)

Varsel

Denne rapporten ble laget for 1 time og 2 minutter siden, klokken 10:45 UTC
Varsel gyldig fra 04. klokken 12 UTC til 05. klokken 18 UTC
Vind 8 kt fra Nord-nordvest med vindkast opp mot 18 kt
Sikt: 7000 m

TAF: OKBK 041045Z 0412/0518 34008G18KT 7000 NSC

Værobservasjoner og værvarsel for over 4000 flyplasser (METAR- og TAF-rapporter).

Tilgjengelige stasjoner er representert av de røde og gule prikkene på kartet.

Hold musepekeren over prikken for å se navnet på stasjonen.

Klikk så for å se værobservasjoner og -varsler.

For å forandre kartet kan du klikke på den grønne knappen med svart kryss for å zoome inn, på den grønne knappen med strek for å zoome ut, eller på de grønne pilene for å se tilstøtende kart.


METAR-TAF: